»·PEaware :: N7317Y L52-L88

N7317Y :: L52-L88

FLIGHT INFORMATION

Flight Status: Arrived
Operator: Privately registered:
United States
More flights under this callsign
Pilot: Kid R. (5493)
Aircraft: PIPER PA-30 TWIN COMANCHE
(PA30)
More flights by this aircraft type
Origin: L52 Oceano Co
United States
Destination: L88 New Cuyama
United States
More flights between these airports :: More routes between these airports
Route: WYNNR
File this flight plan on PilotEdge
Remarks:
Altitude:
(Current/Filed)
5,500ft
Speed:
(Current/Filed)
175kts
Departed: 26-Dec-18 11:16 AM
Arrived: 26-Dec-18 11:56 AM
Distance/Time
Traveled:
47nm/0:40
Distance/Time
To Go:
Arrived

Flight Plot

Page will automatically refresh every two minutes.


Map Options




Map Legend


Flown Route
Filed Route
Departure Airport
Arrival Airport
Navaid (VOR, NDB)
Fix

Horizontal Profiles

Position Reports

Time Latitude Longitude Heading Altitude Ground
Speed
26-Dec-18 10:50 35.103382 -120.624531 214 17ft 0kts
26-Dec-18 10:51 35.103382 -120.624531 214 17ft 0kts
26-Dec-18 10:52 35.103382 -120.624531 214 17ft 0kts
26-Dec-18 10:53 35.103382 -120.624531 214 17ft 0kts
26-Dec-18 10:54 35.103382 -120.624531 214 17ft 0kts
26-Dec-18 10:55 35.103382 -120.624531 214 17ft 0kts
26-Dec-18 10:56 35.103382 -120.624531 214 17ft 0kts
26-Dec-18 10:57 35.103382 -120.624531 214 17ft 0kts
26-Dec-18 10:58 35.103382 -120.624531 214 17ft 0kts
26-Dec-18 10:59 35.103382 -120.624531 214 17ft 0kts
26-Dec-18 11:00 35.103382 -120.624531 214 17ft 0kts
26-Dec-18 11:01 35.103382 -120.624531 214 17ft 0kts
26-Dec-18 11:02 35.103382 -120.624531 214 17ft 0kts
26-Dec-18 11:03 35.103382 -120.624531 214 17ft 0kts
26-Dec-18 11:04 35.103382 -120.624531 214 17ft 0kts
26-Dec-18 11:05 35.103382 -120.624531 214 17ft 0kts
26-Dec-18 11:06 35.103377 -120.624536 213 17ft 0kts
26-Dec-18 11:07 35.102971 -120.624060 122 17ft 1kts
26-Dec-18 11:08 35.102767 -120.623915 214 17ft 1kts
26-Dec-18 11:09 35.101140 -120.622542 124 17ft 15kts
26-Dec-18 11:10 35.099453 -120.619673 136 17ft 2kts
26-Dec-18 11:11 35.099448 -120.619585 57 17ft 0kts
26-Dec-18 11:12 35.099448 -120.619585 57 17ft 0kts
26-Dec-18 11:13 35.099528 -120.619495 38 17ft 1kts
26-Dec-18 11:14 35.100141 -120.619813 304 17ft 19kts
26-Dec-18 11:15 35.111801 -120.648596 273 870ft 114kts
26-Dec-18 11:16 35.094275 -120.679482 168 1885ft 138kts
26-Dec-18 11:17 35.090158 -120.641377 67 2928ft 121kts
26-Dec-18 11:18 35.097312 -120.601106 80 3918ft 123kts
26-Dec-18 11:19 35.098940 -120.561065 71 4885ft 114kts
26-Dec-18 11:20 35.098592 -120.521454 79 5595ft 130kts
26-Dec-18 11:22 35.098595 -120.471833 79 5497ft 151kts
26-Dec-18 11:23 35.098778 -120.420938 79 5480ft 149kts
26-Dec-18 11:24 35.101675 -120.371569 70 5482ft 143kts
26-Dec-18 11:25 35.108103 -120.323195 70 5492ft 148kts
26-Dec-18 11:26 35.113713 -120.272788 77 5482ft 149kts
26-Dec-18 11:27 35.112677 -120.222256 85 5481ft 149kts
26-Dec-18 11:28 35.102840 -120.172315 107 5484ft 157kts
26-Dec-18 11:29 35.084105 -120.123724 106 5491ft 158kts
26-Dec-18 11:30 35.066226 -120.074914 106 5476ft 154kts
26-Dec-18 11:31 35.066194 -120.036831 347 5468ft 105kts
26-Dec-18 11:32 35.054176 -120.057662 144 5519ft 155kts
26-Dec-18 11:33 35.052306 -120.016941 6 5449ft 112kts
26-Dec-18 11:34 35.048370 -120.041888 174 5483ft 155kts
26-Dec-18 11:35 35.040287 -120.002967 23 5471ft 115kts
26-Dec-18 11:36 35.049431 -120.030583 228 5470ft 143kts
26-Dec-18 11:37 35.027824 -120.004209 83 5482ft 132kts
26-Dec-18 11:38 35.030407 -119.961426 73 5494ft 132kts
26-Dec-18 11:38 35.049552 -119.941428 332 5423ft 116kts
26-Dec-18 11:40 35.041222 -119.973407 149 5462ft 142kts
26-Dec-18 11:41 35.018006 -119.936548 117 5470ft 143kts
26-Dec-18 11:41 34.998589 -119.902371 118 5464ft 147kts
26-Dec-18 11:42 34.975231 -119.860520 118 5441ft 146kts
26-Dec-18 11:44 34.948902 -119.813864 118 5471ft 145kts
26-Dec-18 11:44 34.929903 -119.779768 117 5477ft 144kts
26-Dec-18 11:45 34.907308 -119.739159 118 5456ft 143kts
26-Dec-18 11:46 34.884965 -119.699158 118 5463ft 143kts
26-Dec-18 11:48 34.858395 -119.651414 117 5453ft 147kts
26-Dec-18 11:48 34.839144 -119.616646 117 5433ft 147kts
26-Dec-18 11:49 34.831857 -119.574619 34 5242ft 146kts
26-Dec-18 11:50 34.866724 -119.574779 332 5049ft 123kts
26-Dec-18 11:51 34.894016 -119.598142 324 4174ft 119kts
26-Dec-18 11:52 34.914285 -119.626924 300 3181ft 96kts
26-Dec-18 11:53 34.926056 -119.653999 295 2607ft 92kts
26-Dec-18 11:54 34.937611 -119.679968 297 2212ft 71kts
26-Dec-18 11:55 34.941923 -119.690405 298 2206ft 10kts
26-Dec-18 11:56 34.942479 -119.690967 301 2206ft 3kts
26-Dec-18 11:57 34.942820 -119.690447 204 2206ft 0kts

Navigation Log

Ident Type
Flight plan parsing failed, navigation log unavailable